createdAt,value
2019-03-10T00:00:15.443Z,13.1
2019-03-10T00:01:16.155Z,11.0
2019-03-10T00:02:16.871Z,13.1
2019-03-10T00:03:17.572Z,13.5
2019-03-10T00:04:18.274Z,10.5
2019-03-10T00:05:18.991Z,11.9
2019-03-10T00:06:19.689Z,11.6
2019-03-10T00:07:20.392Z,8.1
2019-03-10T00:08:21.109Z,12.3
2019-03-10T00:09:21.808Z,15.1
2019-03-10T00:10:22.523Z,7.4
2019-03-10T00:11:23.234Z,11.2
2019-03-10T00:12:23.941Z,5.7
2019-03-10T00:13:25.152Z,9.1
2019-03-10T00:14:26.440Z,14.5
2019-03-10T00:15:27.563Z,12.6
2019-03-10T00:16:28.218Z,11.7
2019-03-10T00:17:28.926Z,12.6
2019-03-10T00:18:29.628Z,11.4
2019-03-10T00:19:30.333Z,11.4
2019-03-10T00:20:31.044Z,9.6
2019-03-10T00:21:31.760Z,10.8
2019-03-10T00:22:32.519Z,10.0
2019-03-10T00:23:33.236Z,12.0
2019-03-10T00:24:33.931Z,12.7
2019-03-10T00:25:34.641Z,7.9
2019-03-10T00:26:35.357Z,7.7
2019-03-10T00:27:36.074Z,13.6
2019-03-10T00:28:37.025Z,8.8
2019-03-10T00:29:37.727Z,9.1
2019-03-10T00:30:38.438Z,7.6
2019-03-10T00:31:39.146Z,11.1
2019-03-10T00:32:39.870Z,4.9
2019-03-10T00:33:40.573Z,10.0
2019-03-10T00:34:41.332Z,13.1
2019-03-10T00:35:41.988Z,11.3
2019-03-10T00:36:42.681Z,11.7
2019-03-10T00:37:43.385Z,13.4
2019-03-10T00:38:44.251Z,13.7
2019-03-10T00:39:45.440Z,9.9
2019-03-10T00:40:46.212Z,10.3
2019-03-10T00:41:46.912Z,9.3
2019-03-10T00:42:47.711Z,14.9
2019-03-10T00:43:48.421Z,8.1
2019-03-10T00:44:49.142Z,8.8
2019-03-10T00:45:49.913Z,7.3
2019-03-10T00:46:50.604Z,9.1
2019-03-10T00:47:51.325Z,12.7
2019-03-10T00:48:52.017Z,9.6
2019-03-10T00:49:52.710Z,7.5
2019-03-10T00:50:53.423Z,11.9
2019-03-10T00:51:54.120Z,12.4
2019-03-10T00:52:54.836Z,11.1
2019-03-10T00:53:55.541Z,14.0
2019-03-10T00:54:56.279Z,13.5
2019-03-10T00:55:56.964Z,16.7
2019-03-10T00:56:57.688Z,12.1
2019-03-10T00:57:58.389Z,11.9
2019-03-10T00:58:59.256Z,13.0
2019-03-10T01:00:00.913Z,15.2
2019-03-10T01:01:00.667Z,9.7
2019-03-10T01:02:01.379Z,11.4
2019-03-10T01:03:02.076Z,14.5
2019-03-10T01:04:02.798Z,12.2
2019-03-10T01:05:03.510Z,7.2
2019-03-10T01:06:04.218Z,11.5
2019-03-10T01:07:04.924Z,14.8
2019-03-10T01:08:05.641Z,9.2
2019-03-10T01:09:06.404Z,11.9
2019-03-10T01:10:07.125Z,11.2
2019-03-10T01:11:07.844Z,12.1
2019-03-10T01:12:08.555Z,12.1
2019-03-10T01:13:09.259Z,11.9
2019-03-10T01:14:09.969Z,13.5
2019-03-10T01:15:10.922Z,13.8
2019-03-10T01:16:11.616Z,11.6
2019-03-10T01:17:12.324Z,10.6
2019-03-10T01:18:13.025Z,15.5
2019-03-10T01:19:13.733Z,10.9
2019-03-10T01:20:14.444Z,12.6
2019-03-10T01:21:15.151Z,10.1
2019-03-10T01:22:15.867Z,14.7
2019-03-10T01:23:16.566Z,13.4
2019-03-10T01:24:17.268Z,13.0
2019-03-10T01:25:18.215Z,13.8
2019-03-10T01:26:18.935Z,9.3
2019-03-10T01:27:19.644Z,13.3
2019-03-10T01:28:20.622Z,27.9
2019-03-10T01:29:21.331Z,10.7
2019-03-10T01:30:22.038Z,11.9
2019-03-10T01:31:22.756Z,10.2
2019-03-10T01:32:23.726Z,14.2
2019-03-10T01:33:24.423Z,10.2
2019-03-10T01:34:25.120Z,14.4
2019-03-10T01:35:25.844Z,16.1
2019-03-10T01:36:26.569Z,9.3
2019-03-10T01:37:27.272Z,14.2
2019-03-10T01:38:27.978Z,11.0
2019-03-10T01:39:28.694Z,11.9
2019-03-10T01:40:29.405Z,11.4
2019-03-10T01:41:30.404Z,18.1
2019-03-10T01:42:31.118Z,17.1
2019-03-10T01:43:32.088Z,12.9
2019-03-10T01:44:32.797Z,8.8
2019-03-10T01:45:33.508Z,13.0
2019-03-10T01:46:34.221Z,13.2
2019-03-10T01:47:34.929Z,11.4
2019-03-10T01:48:35.638Z,12.3
2019-03-10T01:49:36.331Z,22.0
2019-03-10T01:50:37.382Z,11.2
2019-03-10T01:51:38.115Z,16.1
2019-03-10T01:52:38.817Z,12.7
2019-03-10T01:53:39.513Z,11.4
2019-03-10T01:54:40.236Z,17.7
2019-03-10T01:55:40.946Z,9.7
2019-03-10T01:56:41.643Z,16.0
2019-03-10T01:57:42.361Z,10.6
2019-03-10T01:58:43.083Z,13.7
2019-03-10T01:59:43.796Z,8.5
2019-03-10T02:00:44.514Z,17.6
2019-03-10T02:01:45.235Z,15.9
2019-03-10T02:02:45.947Z,12.2
2019-03-10T02:03:46.666Z,11.7
2019-03-10T02:04:47.571Z,15.1
2019-03-10T02:05:48.285Z,10.3
2019-03-10T02:06:49.004Z,13.3
2019-03-10T02:07:49.718Z,8.5
2019-03-10T02:08:50.419Z,13.5
2019-03-10T02:09:51.123Z,7.3
2019-03-10T02:10:51.831Z,14.1
2019-03-10T02:11:52.550Z,12.9
2019-03-10T02:12:53.254Z,10.4
2019-03-10T02:13:53.998Z,15.2
2019-03-10T02:14:54.704Z,15.2
2019-03-10T02:15:55.439Z,11.8
2019-03-10T02:16:56.197Z,12.4
2019-03-10T02:17:57.037Z,9.7
2019-03-10T02:18:57.752Z,11.9
2019-03-10T02:19:58.470Z,14.5
2019-03-10T02:20:59.186Z,11.9
2019-03-10T02:22:00.000Z,9.6
2019-03-10T02:23:00.702Z,14.0
2019-03-10T02:24:01.408Z,14.3
2019-03-10T02:25:02.108Z,10.7
2019-03-10T02:26:02.819Z,13.3
2019-03-10T02:27:03.548Z,13.4
2019-03-10T02:28:04.819Z,12.3
2019-03-10T02:29:05.529Z,16.4
2019-03-10T02:30:06.230Z,11.6
2019-03-10T02:31:06.934Z,10.3
2019-03-10T02:32:07.656Z,10.3
2019-03-10T02:33:08.371Z,10.3
2019-03-10T02:34:09.106Z,13.3
2019-03-10T02:35:09.802Z,12.8
2019-03-10T02:36:10.488Z,9.7
2019-03-10T02:37:11.198Z,10.8
2019-03-10T02:38:12.158Z,11.5
2019-03-10T02:39:12.765Z,9.6
2019-03-10T02:40:13.481Z,13.4
2019-03-10T02:41:14.198Z,14.5
2019-03-10T02:42:14.916Z,14.5
2019-03-10T02:43:15.625Z,16.3
2019-03-10T02:44:16.335Z,13.1
2019-03-10T02:45:17.053Z,12.1
2019-03-10T02:46:17.745Z,17.7
2019-03-10T02:47:18.455Z,13.9
2019-03-10T02:48:19.170Z,8.6
2019-03-10T02:49:19.888Z,18.5
2019-03-10T02:50:20.594Z,15.7
2019-03-10T02:51:21.290Z,14.1
2019-03-10T02:52:22.268Z,14.0
2019-03-10T02:53:22.973Z,10.2
2019-03-10T02:54:23.700Z,13.3
2019-03-10T02:55:24.417Z,9.6
2019-03-10T02:56:25.128Z,11.9
2019-03-10T02:57:25.853Z,13.5
2019-03-10T02:58:26.555Z,12.5
2019-03-10T02:59:27.262Z,11.8
2019-03-10T03:00:28.483Z,10.3
2019-03-10T03:01:29.168Z,9.6
2019-03-10T03:02:29.951Z,14.0
2019-03-10T03:03:30.666Z,12.1
2019-03-10T03:04:31.387Z,14.3
2019-03-10T03:05:32.079Z,13.0
2019-03-10T03:07:33.659Z,9.7
2019-03-10T03:08:34.367Z,8.6
2019-03-10T03:09:35.064Z,15.6
2019-03-10T03:10:35.779Z,12.9
2019-03-10T03:11:36.593Z,14.6
2019-03-10T03:12:37.324Z,8.4
2019-03-10T03:13:38.003Z,9.9
2019-03-10T03:14:39.069Z,9.4
2019-03-10T03:15:39.815Z,14.7
2019-03-10T03:16:40.529Z,13.0
2019-03-10T03:17:41.249Z,15.8
2019-03-10T03:18:41.961Z,14.0
2019-03-10T03:19:42.676Z,14.6
2019-03-10T03:20:43.372Z,10.0
2019-03-10T03:21:44.085Z,15.7
2019-03-10T03:22:44.792Z,11.7
2019-03-10T03:23:45.506Z,11.5
2019-03-10T03:24:46.205Z,14.5
2019-03-10T03:25:47.067Z,12.7
2019-03-10T03:26:47.777Z,8.7
2019-03-10T03:27:48.494Z,14.3
2019-03-10T03:28:49.205Z,11.4
2019-03-10T03:29:49.909Z,16.3
2019-03-10T03:30:50.624Z,15.4
2019-03-10T03:31:51.342Z,15.1
2019-03-10T03:32:52.061Z,9.7
2019-03-10T03:33:52.791Z,12.4
2019-03-10T03:34:53.475Z,16.0
2019-03-10T03:35:54.193Z,12.3
2019-03-10T03:36:54.907Z,18.0
2019-03-10T03:37:55.613Z,13.8
2019-03-10T03:38:56.312Z,11.8
2019-03-10T03:39:57.020Z,10.1
2019-03-10T03:40:57.723Z,11.1
2019-03-10T03:41:58.426Z,8.3
2019-03-10T03:42:59.140Z,14.1
2019-03-10T03:43:59.848Z,12.7
2019-03-10T03:45:00.659Z,15.2
2019-03-10T03:46:01.328Z,14.3
2019-03-10T03:47:02.028Z,9.6
2019-03-10T03:48:02.725Z,8.1
2019-03-10T03:49:03.448Z,13.1
2019-03-10T03:50:04.192Z,14.0
2019-03-10T03:51:04.873Z,12.5
2019-03-10T03:52:05.566Z,18.7
2019-03-10T03:53:06.263Z,11.6
2019-03-10T03:54:06.979Z,11.0
2019-03-10T03:55:07.695Z,11.2
2019-03-10T03:56:08.429Z,11.1
2019-03-10T03:57:09.116Z,21.6
2019-03-10T03:58:09.827Z,9.0
2019-03-10T03:59:10.543Z,16.3
2019-03-10T04:00:11.254Z,13.9
2019-03-10T04:01:12.236Z,11.9
2019-03-10T04:02:12.938Z,15.0
2019-03-10T04:03:13.652Z,17.1
2019-03-10T04:04:14.368Z,10.6
2019-03-10T04:05:15.535Z,12.4
2019-03-10T04:06:16.257Z,12.2
2019-03-10T04:07:17.254Z,11.9
2019-03-10T04:08:17.973Z,13.5
2019-03-10T04:09:18.675Z,13.4
2019-03-10T04:10:19.379Z,17.0
2019-03-10T04:11:20.095Z,11.2
2019-03-10T04:12:21.042Z,8.1
2019-03-10T04:13:21.755Z,16.6
2019-03-10T04:14:22.459Z,11.2
2019-03-10T04:15:23.526Z,19.6
2019-03-10T04:16:24.280Z,15.3
2019-03-10T04:17:25.290Z,10.7
2019-03-10T04:18:26.132Z,12.4
2019-03-10T04:19:26.939Z,12.7
2019-03-10T04:20:27.658Z,11.7
2019-03-10T04:21:28.393Z,11.1
2019-03-10T04:22:29.446Z,11.3
2019-03-10T04:23:30.490Z,10.2
2019-03-10T04:24:31.189Z,14.4
2019-03-10T04:25:31.994Z,13.6
2019-03-10T04:26:32.707Z,15.4
2019-03-10T04:27:33.408Z,17.8
2019-03-10T04:28:34.143Z,15.5
2019-03-10T04:29:34.839Z,13.9
2019-03-10T04:30:35.826Z,13.7
2019-03-10T04:31:36.523Z,6.7
2019-03-10T04:32:37.236Z,13.6
2019-03-10T04:33:37.957Z,12.5
2019-03-10T04:34:38.661Z,13.5
2019-03-10T04:35:39.374Z,13.5
2019-03-10T04:36:40.084Z,13.9
2019-03-10T04:37:40.801Z,13.1
2019-03-10T04:38:41.762Z,13.3
2019-03-10T04:39:42.461Z,15.3
2019-03-10T04:40:43.174Z,11.9
2019-03-10T04:41:44.236Z,9.5
2019-03-10T04:42:45.335Z,18.9
2019-03-10T04:43:46.026Z,9.5
2019-03-10T04:44:46.750Z,17.7
2019-03-10T04:45:47.991Z,9.0
2019-03-10T04:46:48.677Z,14.8
2019-03-10T04:47:49.384Z,10.2
2019-03-10T04:48:50.100Z,9.2
2019-03-10T04:49:51.771Z,17.2
2019-03-10T04:50:52.832Z,18.0
2019-03-10T04:51:53.901Z,17.0
2019-03-10T04:52:54.640Z,12.4
2019-03-10T04:53:55.342Z,12.0
2019-03-10T04:54:56.056Z,15.4
2019-03-10T04:55:56.758Z,12.7
2019-03-10T04:56:58.977Z,20.9
2019-03-10T04:57:58.178Z,13.5
2019-03-10T04:58:59.175Z,15.6
2019-03-10T04:59:59.892Z,9.4
2019-03-10T05:01:00.579Z,15.2
2019-03-10T05:02:01.285Z,13.9
2019-03-10T05:03:01.996Z,13.6
2019-03-10T05:04:02.723Z,13.4
2019-03-10T05:05:03.420Z,19.0
2019-03-10T05:06:04.143Z,14.8
2019-03-10T05:07:04.948Z,14.6
2019-03-10T05:08:05.652Z,10.3
2019-03-10T05:09:06.367Z,10.6
2019-03-10T05:10:07.081Z,13.9
2019-03-10T05:11:07.794Z,14.5
2019-03-10T05:12:08.507Z,11.0
2019-03-10T05:13:09.205Z,8.6
2019-03-10T05:14:10.143Z,12.5
2019-03-10T05:15:10.856Z,13.2
2019-03-10T05:16:11.912Z,16.4
2019-03-10T05:17:12.612Z,12.3
2019-03-10T05:18:13.316Z,13.7
2019-03-10T05:19:14.026Z,19.7
2019-03-10T05:20:14.731Z,12.9
2019-03-10T05:21:15.698Z,15.5
2019-03-10T05:22:16.401Z,11.6
2019-03-10T05:23:17.112Z,16.4
2019-03-10T05:24:17.835Z,10.7
2019-03-10T05:25:18.537Z,9.8
2019-03-10T05:26:19.243Z,14.3
2019-03-10T05:27:19.959Z,10.9
2019-03-10T05:28:20.659Z,11.7
2019-03-10T05:29:21.370Z,14.8
2019-03-10T05:30:22.080Z,8.9
2019-03-10T05:31:22.784Z,11.6
2019-03-10T05:32:23.485Z,12.2
2019-03-10T05:33:24.187Z,15.5
2019-03-10T05:34:24.906Z,5.3
2019-03-10T05:35:25.631Z,11.3
2019-03-10T05:36:26.338Z,14.7
2019-03-10T05:37:27.058Z,15.1
2019-03-10T05:38:27.769Z,8.7
2019-03-10T05:39:28.823Z,13.7
2019-03-10T05:40:29.530Z,9.4
2019-03-10T05:41:30.242Z,7.5
2019-03-10T05:42:30.976Z,7.7
2019-03-10T05:43:31.939Z,14.0
2019-03-10T05:44:32.794Z,11.8
2019-03-10T05:45:33.511Z,8.6
2019-03-10T05:46:34.234Z,12.1
2019-03-10T05:47:35.195Z,12.1
2019-03-10T05:48:35.911Z,12.9
2019-03-10T05:49:36.608Z,11.5
2019-03-10T05:50:37.327Z,11.2
2019-03-10T05:51:38.051Z,10.8
2019-03-10T05:52:38.810Z,8.9
2019-03-10T05:53:39.580Z,9.5
2019-03-10T05:54:40.235Z,14.4
2019-03-10T05:55:40.956Z,7.3
2019-03-10T05:56:41.650Z,10.8
2019-03-10T05:57:42.442Z,9.3
2019-03-10T05:58:43.162Z,16.0
2019-03-10T05:59:43.876Z,10.8
2019-03-10T06:00:44.585Z,10.0
2019-03-10T06:01:45.300Z,10.4
2019-03-10T06:02:46.081Z,9.2
2019-03-10T06:03:46.726Z,13.1
2019-03-10T06:04:47.433Z,13.5
2019-03-10T06:05:48.149Z,15.6
2019-03-10T06:06:48.886Z,16.0
2019-03-10T06:07:49.589Z,10.4
2019-03-10T06:08:50.288Z,12.1
2019-03-10T06:09:50.994Z,17.2
2019-03-10T06:10:51.704Z,17.5
2019-03-10T06:11:52.417Z,11.9
2019-03-10T06:12:53.135Z,14.7
2019-03-10T06:13:53.861Z,11.5
2019-03-10T06:14:54.569Z,11.7
2019-03-10T06:15:55.286Z,19.1
2019-03-10T06:16:56.011Z,13.9
2019-03-10T06:17:56.723Z,19.0
2019-03-10T06:18:57.451Z,19.4
2019-03-10T06:19:58.149Z,14.1
2019-03-10T06:20:58.861Z,16.3
2019-03-10T06:21:59.576Z,16.6
2019-03-10T06:23:00.285Z,15.2
2019-03-10T06:24:01.332Z,15.4
2019-03-10T06:25:02.033Z,15.2
2019-03-10T06:26:02.740Z,23.3
2019-03-10T06:27:03.478Z,20.9
2019-03-10T06:28:04.182Z,21.1
2019-03-10T06:29:04.898Z,22.0
2019-03-10T06:30:05.604Z,19.4
2019-03-10T06:31:06.317Z,11.5
2019-03-10T06:32:07.026Z,19.2
2019-03-10T06:33:07.739Z,17.2
2019-03-10T06:34:08.453Z,24.2
2019-03-10T06:35:09.163Z,19.0
2019-03-10T06:36:10.258Z,13.4
2019-03-10T06:37:11.234Z,13.6
2019-03-10T06:38:11.943Z,20.3
2019-03-10T06:39:12.648Z,17.7
2019-03-10T06:40:13.487Z,18.2
2019-03-10T06:41:14.443Z,11.8
2019-03-10T06:42:15.152Z,17.4
2019-03-10T06:43:15.862Z,19.9
2019-03-10T06:44:16.581Z,29.2
2019-03-10T06:45:17.304Z,18.2
2019-03-10T06:46:18.016Z,15.7
2019-03-10T06:47:18.723Z,18.5
2019-03-10T06:48:19.432Z,18.3
2019-03-10T06:49:20.139Z,16.9
2019-03-10T06:50:20.876Z,19.5
2019-03-10T06:51:21.582Z,15.8
2019-03-10T06:52:22.304Z,14.0
2019-03-10T06:53:23.013Z,19.5
2019-03-10T06:54:23.738Z,11.2
2019-03-10T06:55:24.465Z,13.0
2019-03-10T06:56:25.163Z,20.0
2019-03-10T06:57:25.894Z,19.3
2019-03-10T06:58:26.629Z,12.3
2019-03-10T06:59:27.352Z,16.4
2019-03-10T07:00:28.060Z,15.6
2019-03-10T07:01:28.775Z,13.8
2019-03-10T07:02:29.475Z,18.6
2019-03-10T07:03:30.197Z,18.8
2019-03-10T07:04:30.909Z,13.9
2019-03-10T07:05:31.620Z,19.4
2019-03-10T07:06:32.341Z,19.2
2019-03-10T07:07:33.060Z,11.5
2019-03-10T07:08:33.773Z,12.3
2019-03-10T07:09:34.491Z,11.8
2019-03-10T07:10:35.198Z,9.9
2019-03-10T07:11:35.911Z,14.0
2019-03-10T07:12:36.631Z,15.8
2019-03-10T07:13:39.527Z,15.8
2019-03-10T07:14:38.069Z,13.9
2019-03-10T07:15:38.770Z,15.1
2019-03-10T07:16:39.489Z,15.6
2019-03-10T07:17:40.206Z,14.1
2019-03-10T07:18:40.914Z,9.2
2019-03-10T07:19:41.633Z,12.9
2019-03-10T07:20:42.335Z,11.4
2019-03-10T07:21:43.203Z,17.1
2019-03-10T07:22:43.902Z,14.9
2019-03-10T07:23:44.620Z,15.0
2019-03-10T07:24:45.330Z,19.4
2019-03-10T07:25:46.053Z,12.5
2019-03-10T07:26:46.868Z,19.1
2019-03-10T07:27:47.573Z,17.6
2019-03-10T07:28:48.272Z,13.4
2019-03-10T07:29:48.993Z,12.1
2019-03-10T07:30:49.697Z,22.7
2019-03-10T07:31:50.409Z,18.1
2019-03-10T07:32:51.110Z,22.0
2019-03-10T07:33:51.836Z,16.0
2019-03-10T07:34:52.558Z,16.2
2019-03-10T07:35:53.266Z,18.8
2019-03-10T07:36:53.982Z,13.1
2019-03-10T07:37:54.706Z,20.4
2019-03-10T07:38:55.661Z,15.7
2019-03-10T07:39:56.384Z,14.3
2019-03-10T07:40:57.091Z,13.1
2019-03-10T07:41:57.801Z,22.2
2019-03-10T07:42:58.515Z,18.5
2019-03-10T07:43:59.225Z,15.1
2019-03-10T07:44:59.942Z,22.0
2019-03-10T07:46:00.659Z,16.1
2019-03-10T07:47:01.370Z,19.9
2019-03-10T07:48:02.074Z,15.5
2019-03-10T07:49:02.774Z,16.2
2019-03-10T07:50:03.505Z,20.8
2019-03-10T07:51:04.220Z,20.0
2019-03-10T07:52:04.953Z,12.6
2019-03-10T07:53:05.728Z,15.6
2019-03-10T07:54:06.457Z,15.0
2019-03-10T07:55:07.155Z,14.0
2019-03-10T07:56:07.893Z,16.8
2019-03-10T07:57:08.603Z,12.6
2019-03-10T07:58:09.566Z,13.0
2019-03-10T07:59:10.264Z,14.3
2019-03-10T08:00:10.990Z,17.9
2019-03-10T08:01:11.698Z,16.4
2019-03-10T08:02:12.418Z,16.4
2019-03-10T08:03:13.133Z,16.0
2019-03-10T08:04:13.839Z,15.5
2019-03-10T08:05:14.546Z,16.9
2019-03-10T08:06:15.501Z,15.0
2019-03-10T08:07:16.202Z,20.5
2019-03-10T08:08:16.916Z,16.0
2019-03-10T08:09:17.623Z,14.4
2019-03-10T08:10:18.348Z,12.7
2019-03-10T08:11:19.058Z,13.5
2019-03-10T08:12:19.778Z,14.5
2019-03-10T08:13:20.484Z,14.8
2019-03-10T08:14:21.199Z,18.9
2019-03-10T08:15:21.917Z,14.2
2019-03-10T08:16:22.632Z,13.5
2019-03-10T08:17:24.631Z,18.2
2019-03-10T08:18:24.066Z,17.0
2019-03-10T08:19:24.763Z,15.2
2019-03-10T08:20:25.497Z,21.1
2019-03-10T08:21:26.193Z,20.1
2019-03-10T08:22:26.911Z,19.1
2019-03-10T08:23:27.632Z,21.1
2019-03-10T08:24:28.346Z,19.3
2019-03-10T08:25:29.065Z,18.1
2019-03-10T08:26:29.788Z,16.5
2019-03-10T08:27:30.494Z,16.2
2019-03-10T08:28:31.206Z,20.8
2019-03-10T08:29:31.935Z,16.6
2019-03-10T08:30:32.647Z,19.2
2019-03-10T08:31:33.351Z,18.7
2019-03-10T08:32:34.064Z,21.5
2019-03-10T08:33:34.779Z,24.8
2019-03-10T08:34:35.497Z,12.8
2019-03-10T08:35:36.204Z,14.0
2019-03-10T08:36:36.913Z,15.8
2019-03-10T08:37:37.620Z,7.5
2019-03-10T08:38:38.341Z,12.6
2019-03-10T08:39:39.057Z,8.7
2019-03-10T08:40:39.777Z,8.8
2019-03-10T08:41:40.511Z,5.5
2019-03-10T08:42:41.215Z,5.6
2019-03-10T08:43:41.928Z,7.5
2019-03-10T08:44:42.628Z,8.6
2019-03-10T08:45:43.348Z,7.2
2019-03-10T08:46:44.054Z,5.0
2019-03-10T08:47:44.764Z,4.4
2019-03-10T08:48:45.478Z,5.4
2019-03-10T08:49:46.195Z,6.4
2019-03-10T08:50:46.908Z,4.3
2019-03-10T08:51:47.623Z,4.3
2019-03-10T08:52:48.346Z,6.0
2019-03-10T08:53:49.059Z,7.7
2019-03-10T08:54:49.780Z,4.4
2019-03-10T08:55:50.494Z,6.5
2019-03-10T08:56:51.221Z,6.1
2019-03-10T08:57:52.022Z,7.8
2019-03-10T08:58:52.744Z,6.2
2019-03-10T08:59:53.475Z,4.5
2019-03-10T09:00:54.172Z,5.0
2019-03-10T09:01:55.137Z,4.8
2019-03-10T09:02:55.855Z,5.2
2019-03-10T09:03:56.570Z,5.0
2019-03-10T09:04:57.276Z,9.0
2019-03-10T09:05:58.279Z,4.8
2019-03-10T09:06:58.980Z,4.6
2019-03-10T09:07:59.726Z,5.9
2019-03-10T09:09:00.433Z,4.4
2019-03-10T09:10:01.146Z,5.5
2019-03-10T09:11:01.861Z,4.5
2019-03-10T09:12:02.573Z,6.9
2019-03-10T09:13:03.430Z,4.9
2019-03-10T09:14:04.101Z,8.1
2019-03-10T09:15:04.813Z,4.5
2019-03-10T09:16:05.527Z,5.3
2019-03-10T09:17:06.230Z,4.5
2019-03-10T09:18:06.993Z,5.7
2019-03-10T09:19:07.707Z,5.3
2019-03-10T09:20:08.448Z,5.1
2019-03-10T09:21:09.160Z,5.6
2019-03-10T09:22:09.879Z,6.4
2019-03-10T09:23:10.601Z,5.9
2019-03-10T09:24:11.309Z,8.3
2019-03-10T09:25:12.021Z,8.8
2019-03-10T09:26:12.725Z,5.8
2019-03-10T09:27:13.443Z,8.1
2019-03-10T09:28:14.160Z,8.8
2019-03-10T09:29:14.876Z,5.8
2019-03-10T09:30:15.679Z,6.2
2019-03-10T09:31:16.428Z,5.6
2019-03-10T09:32:17.112Z,6.3
2019-03-10T09:33:17.825Z,5.7
2019-03-10T09:34:18.544Z,5.6
2019-03-10T09:35:19.290Z,5.4
2019-03-10T09:36:20.001Z,6.5
2019-03-10T09:37:20.724Z,6.5
2019-03-10T09:38:21.432Z,6.1
2019-03-10T09:39:22.143Z,6.8
2019-03-10T09:40:22.857Z,5.8
2019-03-10T09:41:23.568Z,6.3
2019-03-10T09:42:24.266Z,7.2
2019-03-10T09:43:24.988Z,6.2
2019-03-10T09:44:25.696Z,4.9
2019-03-10T09:45:26.420Z,5.3
2019-03-10T09:46:27.139Z,4.8
2019-03-10T09:47:27.836Z,5.6
2019-03-10T09:48:28.562Z,5.3
2019-03-10T09:49:29.256Z,5.4
2019-03-10T09:50:29.980Z,5.9
2019-03-10T09:51:30.681Z,5.0
2019-03-10T09:52:31.412Z,5.0
2019-03-10T09:53:32.141Z,4.5
2019-03-10T09:54:32.860Z,5.4
2019-03-10T09:55:33.571Z,3.4
2019-03-10T09:56:34.334Z,3.5
2019-03-10T09:57:35.031Z,5.2
2019-03-10T09:58:35.752Z,3.2
2019-03-10T09:59:36.479Z,3.3
2019-03-10T10:00:37.175Z,3.2
2019-03-10T10:01:37.930Z,3.1
2019-03-10T10:02:38.895Z,3.6
2019-03-10T10:03:39.622Z,4.1
2019-03-10T10:04:40.347Z,4.3
2019-03-10T10:05:41.058Z,4.1
2019-03-10T10:06:41.829Z,3.9
2019-03-10T10:07:42.548Z,3.9
2019-03-10T10:08:45.237Z,5.1
2019-03-10T10:09:43.969Z,5.9
2019-03-10T10:10:44.691Z,4.1
2019-03-10T10:11:45.408Z,3.6
2019-03-10T10:12:46.127Z,4.2
2019-03-10T10:13:46.854Z,3.9
2019-03-10T10:14:48.679Z,4.1
2019-03-10T10:15:48.319Z,4.8
2019-03-10T10:16:49.202Z,4.6
2019-03-10T10:17:50.049Z,4.6
2019-03-10T10:18:50.753Z,5.4
2019-03-10T10:19:51.455Z,5.7
2019-03-10T10:20:52.162Z,5.7
2019-03-10T10:21:52.886Z,5.5
2019-03-10T10:22:53.585Z,7.3
2019-03-10T10:23:54.308Z,6.6
2019-03-10T10:24:55.034Z,7.6
2019-03-10T10:25:55.754Z,6.9
2019-03-10T10:26:56.466Z,7.7
2019-03-10T10:27:57.185Z,7.2
2019-03-10T10:28:57.901Z,7.3
2019-03-10T10:29:58.614Z,7.5
2019-03-10T10:30:59.328Z,8.6
2019-03-10T10:32:00.049Z,9.8
2019-03-10T10:33:00.758Z,10.6
2019-03-10T10:34:01.483Z,11.3
2019-03-10T10:35:02.188Z,9.7
2019-03-10T10:36:03.053Z,7.5
2019-03-10T10:37:03.764Z,7.8
2019-03-10T10:38:04.470Z,8.2
2019-03-10T10:39:05.193Z,8.4
2019-03-10T10:40:05.916Z,10.0
2019-03-10T10:41:06.736Z,9.1
2019-03-10T10:42:07.450Z,10.1
2019-03-10T10:43:08.159Z,8.8
2019-03-10T10:44:08.874Z,6.8
2019-03-10T10:45:09.596Z,6.4
2019-03-10T10:46:10.304Z,8.1
2019-03-10T10:47:11.027Z,7.4
2019-03-10T10:48:11.738Z,7.7
2019-03-10T10:49:12.452Z,11.5
2019-03-10T10:50:13.965Z,8.4
2019-03-10T10:51:13.942Z,12.0
2019-03-10T10:52:14.678Z,7.5
2019-03-10T10:53:15.377Z,8.7
2019-03-10T10:54:16.095Z,6.8
2019-03-10T10:55:16.780Z,7.3
2019-03-10T10:56:17.503Z,8.2
2019-03-10T10:57:18.277Z,9.0
2019-03-10T10:58:19.036Z,9.0
2019-03-10T10:59:19.739Z,10.9
2019-03-10T11:00:20.447Z,11.2
2019-03-10T11:01:21.167Z,10.6
2019-03-10T11:02:21.891Z,13.7
2019-03-10T11:03:22.612Z,10.6
2019-03-10T11:04:23.310Z,12.4
2019-03-10T11:05:24.028Z,11.8
2019-03-10T11:06:24.744Z,11.2
2019-03-10T11:07:25.465Z,12.1
2019-03-10T11:08:26.191Z,8.1
2019-03-10T11:09:26.910Z,12.2
2019-03-10T11:10:27.620Z,8.7
2019-03-10T11:11:28.585Z,10.6
2019-03-10T11:12:29.382Z,9.3
2019-03-10T11:13:30.107Z,8.4
2019-03-10T11:14:30.810Z,10.1
2019-03-10T11:15:31.523Z,8.2
2019-03-10T11:16:32.222Z,10.7
2019-03-10T11:17:32.952Z,8.0
2019-03-10T11:18:33.667Z,10.7
2019-03-10T11:19:34.378Z,7.7
2019-03-10T11:20:35.096Z,12.0
2019-03-10T11:21:35.815Z,9.2
2019-03-10T11:22:36.513Z,8.5
2019-03-10T11:23:37.231Z,9.6
2019-03-10T11:24:38.194Z,8.7
2019-03-10T11:25:38.906Z,9.7
2019-03-10T11:26:39.624Z,8.3
2019-03-10T11:27:40.341Z,10.4
2019-03-10T11:28:41.082Z,9.5
2019-03-10T11:29:41.791Z,8.2
2019-03-10T11:30:42.516Z,12.4
2019-03-10T11:31:43.215Z,10.9
2019-03-10T11:32:43.945Z,8.6
2019-03-10T11:33:44.658Z,11.5
2019-03-10T11:34:45.710Z,9.9
2019-03-10T11:35:46.826Z,9.3
2019-03-10T11:36:47.892Z,10.8
2019-03-10T11:37:48.595Z,12.3
2019-03-10T11:38:49.334Z,11.8
2019-03-10T11:39:50.352Z,14.0
2019-03-10T11:40:51.158Z,14.0
2019-03-10T11:41:51.904Z,12.2
2019-03-10T11:42:52.619Z,10.5
2019-03-10T11:43:53.419Z,9.3
2019-03-10T11:44:54.115Z,11.8
2019-03-10T11:45:54.815Z,13.9
2019-03-10T11:46:55.525Z,11.2
2019-03-10T11:47:58.369Z,14.1
2019-03-10T11:48:57.341Z,15.6
2019-03-10T11:49:58.206Z,8.9
2019-03-10T11:50:59.449Z,11.4
2019-03-10T11:52:00.208Z,11.5
2019-03-10T11:53:00.932Z,10.2
2019-03-10T11:54:01.649Z,14.8
2019-03-10T11:55:02.890Z,13.4
2019-03-10T11:56:03.658Z,12.3
2019-03-10T11:57:04.418Z,8.7
2019-03-10T11:58:05.191Z,10.3
2019-03-10T11:59:05.922Z,8.6
2019-03-10T12:00:06.757Z,13.0
2019-03-10T12:01:07.469Z,16.3
2019-03-10T12:02:16.123Z,21.5
2019-03-10T12:03:08.895Z,13.5
2019-03-10T12:04:10.418Z,9.6
2019-03-10T12:05:10.472Z,12.4
2019-03-10T12:06:11.182Z,11.8
2019-03-10T12:07:11.899Z,11.6
2019-03-10T12:08:12.599Z,15.0
2019-03-10T12:09:13.318Z,9.0
2019-03-10T12:10:14.033Z,9.6
2019-03-10T12:11:14.741Z,13.0
2019-03-10T12:12:15.474Z,9.1
2019-03-10T12:13:16.186Z,12.2
2019-03-10T12:14:16.937Z,9.1
2019-03-10T12:15:17.645Z,13.9
2019-03-10T12:16:18.465Z,13.9
2019-03-10T12:17:19.175Z,13.0
2019-03-10T12:18:19.955Z,13.5
2019-03-10T12:19:20.612Z,10.0
2019-03-10T12:20:21.326Z,9.7
2019-03-10T12:21:22.050Z,14.2
2019-03-10T12:22:22.757Z,12.8
2019-03-10T12:23:23.475Z,11.7
2019-03-10T12:24:24.192Z,9.7
2019-03-10T12:25:24.906Z,8.8
2019-03-10T12:26:25.720Z,7.8
2019-03-10T12:27:26.717Z,7.9
2019-03-10T12:28:27.423Z,7.6
2019-03-10T12:29:28.143Z,7.5
2019-03-10T12:30:28.868Z,7.5
2019-03-10T12:31:29.676Z,7.4
2019-03-10T12:32:30.414Z,7.1
2019-03-10T12:33:31.106Z,10.1
2019-03-10T12:34:31.813Z,10.5
2019-03-10T12:35:34.728Z,7.4
2019-03-10T12:36:33.428Z,7.2
2019-03-10T12:37:34.076Z,7.4
2019-03-10T12:38:34.797Z,7.9
2019-03-10T12:39:35.512Z,9.4
2019-03-10T12:40:36.338Z,7.7
2019-03-10T12:41:38.293Z,6.9
2019-03-10T12:42:39.371Z,7.9
2019-03-10T12:43:40.111Z,8.1
2019-03-10T12:44:41.245Z,7.1
2019-03-10T12:45:42.029Z,5.9
2019-03-10T12:46:43.017Z,7.9
2019-03-10T12:47:43.798Z,6.4
2019-03-10T12:48:44.895Z,7.3
2019-03-10T12:49:45.641Z,8.1
2019-03-10T12:50:46.450Z,8.3
2019-03-10T12:51:47.181Z,8.9
2019-03-10T12:52:48.005Z,8.1
2019-03-10T12:53:48.718Z,9.5
2019-03-10T12:54:49.785Z,10.6
2019-03-10T12:55:51.206Z,9.3
2019-03-10T12:56:51.929Z,8.5
2019-03-10T12:57:52.646Z,8.9
2019-03-10T12:58:53.354Z,10.1
2019-03-10T12:59:54.063Z,9.6
2019-03-10T13:01:05.312Z,8.1
2019-03-10T13:01:55.493Z,8.4
2019-03-10T13:02:56.193Z,8.4
2019-03-10T13:03:59.022Z,8.5
2019-03-10T13:04:57.778Z,8.2
2019-03-10T13:05:58.504Z,8.3
2019-03-10T13:06:59.220Z,7.7
2019-03-10T13:07:59.941Z,7.7
2019-03-10T13:09:00.659Z,7.2
2019-03-10T13:10:01.384Z,6.8
2019-03-10T13:11:02.097Z,7.7
2019-03-10T13:12:02.794Z,8.1
2019-03-10T13:13:03.508Z,8.9
2019-03-10T13:14:04.318Z,7.6
2019-03-10T13:15:05.063Z,7.2
2019-03-10T13:16:05.755Z,7.2
2019-03-10T13:17:06.470Z,7.5
2019-03-10T13:18:07.174Z,7.8
2019-03-10T13:19:07.901Z,7.8
2019-03-10T13:20:08.615Z,7.8
2019-03-10T13:21:09.351Z,7.2
2019-03-10T13:22:10.074Z,8.0
2019-03-10T13:23:10.795Z,9.1
2019-03-10T13:24:11.509Z,8.2
2019-03-10T13:25:12.314Z,7.7
2019-03-10T13:26:13.033Z,7.9
2019-03-10T13:27:13.737Z,7.3
2019-03-10T13:28:14.462Z,6.9
2019-03-10T13:29:15.177Z,7.5
2019-03-10T13:30:15.943Z,6.5
2019-03-10T13:31:16.662Z,8.2
2019-03-10T13:32:17.631Z,6.4
2019-03-10T13:33:18.346Z,6.6
2019-03-10T13:34:19.053Z,7.0
2019-03-10T13:35:19.824Z,7.0
2019-03-10T13:36:20.529Z,7.3
2019-03-10T13:37:21.256Z,7.3
2019-03-10T13:38:21.972Z,7.6
2019-03-10T13:39:22.680Z,7.3